KITH/ITH METAR and TAF weather

Enter ICAO airport designator
Station Type Date Time Source
KITH METAR 2022/01/23 11:56 UTC NOAA

KITH 231156Z 22010KT 10SM OVC048 M06/M11 A2983 RMK AO2 SLP118 60000 T10561111 11056 21067 56013


Station Type Date Time Source
KITH Decoded METAR 2022/01/23 11:56 UTC NOAA

Ithaca, Ithaca Tompkins Regional Airport, NY, United States (KITH) 42-29-27N 076-27-30W
Jan 23, 2022 - 06:56 AM EST / 2022.01.23 1156 UTC
Wind: from the SW (220 degrees) at 12 MPH (10 KT):0
Visibility: 10 mile(s):0
Sky conditions: overcast
Temperature: 21.9 F (-5.6 C)
Windchill: 10 F (-12 C):1
Dew Point: 12.0 F (-11.1 C)
Relative Humidity: 65%
Pressure (altimeter): 29.83 in. Hg (1010 hPa)
Pressure tendency: 0.04 inches (1.3 hPa) lower than three hours ago
ob: KITH 231156Z 22010KT 10SM OVC048 M06/M11 A2983 RMK AO2 SLP118 60000 T10561111 11056 21067 56013
cycle: 12

Station Type Date Time Source
KITH TAF 2022/01/23 12:39 UTC NOAA

TAF KITH 231137Z 2312/2412 22006G12KT P6SM OVC040
FM231600 27006G11KT 4SM -SN BR OVC020
FM231900 29006KT 2SM -SN BR OVC018
FM232100 32005KT 1 1/2SM -SN BR OVC015
FM232300 34005KT P6SM -SHSN OVC015
FM240400 31004KT P6SM BKN025

Example: see airport list